Naro-Fominsk, Russia
Current Conditions -  °F | °C
As of 3:00 PM on Monday 24 Nov 2014 (Local Time) from UUWW Reporting Station
Overcast Overcast  
Wind Chill: 23°   Ceiling: 600
Heat Index: 28°   Visibility: 4mi
Dew Point: 25°   Wind: 4mph
Humidity: 86%   Direction: NA
Pressure: 30.65"   Gusts: NA
Location:  55.39°N, 36.74°E
Report Text: UUWW 241200Z VRB02MPS 6000 OVC006 M02/M04 Q1038 06290050 TEMPO-FZDZ
Loading
Personal Weather Stations






























Interactive Weather Map New forecast layout! Learn more

10-Day Weather Forecast

Advertisements
Track Severe Weather on mobile